sensor_id;sensor_type;location;lat;lon;timestamp;P1;durP1;ratioP1;P2;durP2;ratioP2
12888;SDS011;56848;49.896;11.424;2022-08-21T04:02:52;34.00;;;7.83;;
12888;SDS011;56848;49.896;11.424;2022-08-21T04:05:18;30.03;;;7.80;;
12888;SDS011;56848;49.896;11.424;2022-08-21T04:07:59;97.83;;;9.67;;
12888;SDS011;56848;49.896;11.424;2022-08-21T04:10:27;117.90;;;10.53;;
12888;SDS011;56848;49.896;11.424;2022-08-21T04:12:54;159.97;;;10.97;;
12888;SDS011;56848;49.896;11.424;2022-08-21T04:15:21;153.83;;;10.80;;
12888;SDS011;56848;49.896;11.424;2022-08-21T04:17:47;148.93;;;10.23;;
12888;SDS011;56848;49.896;11.424;2022-08-21T04:20:14;190.67;;;10.73;;
12888;SDS011;56848;49.896;11.424;2022-08-21T04:22:40;84.33;;;8.70;;
12888;SDS011;56848;49.896;11.424;2022-08-21T04:25:07;31.97;;;8.10;;
12888;SDS011;56848;49.896;11.424;2022-08-21T04:27:33;52.50;;;7.20;;
12888;SDS011;56848;49.896;11.424;2022-08-21T04:29:59;85.27;;;8.40;;
12888;SDS011;56848;49.896;11.424;2022-08-21T04:32:26;73.27;;;8.47;;
12888;SDS011;56848;49.896;11.424;2022-08-21T04:34:59;38.80;;;8.83;;
12888;SDS011;56848;49.896;11.424;2022-08-21T04:37:26;148.60;;;10.30;;
12888;SDS011;56848;49.896;11.424;2022-08-21T04:39:52;55.70;;;9.83;;
12888;SDS011;56848;49.896;11.424;2022-08-21T04:42:18;56.47;;;10.57;;
12888;SDS011;56848;49.896;11.424;2022-08-21T04:44:44;125.83;;;11.70;;
12888;SDS011;56848;49.896;11.424;2022-08-21T04:47:10;188.60;;;15.00;;
12888;SDS011;56848;49.896;11.424;2022-08-21T04:49:36;190.77;;;14.43;;
12888;SDS011;56848;49.896;11.424;2022-08-21T04:52:02;172.40;;;14.30;;
12888;SDS011;56848;49.896;11.424;2022-08-21T04:54:28;87.90;;;12.27;;
12888;SDS011;56848;49.896;11.424;2022-08-21T04:56:56;173.53;;;14.63;;
12888;SDS011;56848;49.896;11.424;2022-08-21T04:59:25;73.43;;;13.40;;
12888;SDS011;56848;49.896;11.424;2022-08-21T05:01:52;83.43;;;14.03;;
12888;SDS011;56848;49.896;11.424;2022-08-21T05:04:21;100.20;;;12.70;;
12888;SDS011;56848;49.896;11.424;2022-08-21T05:06:49;81.83;;;12.83;;
12888;SDS011;56848;49.896;11.424;2022-08-21T05:09:16;86.67;;;14.30;;
12888;SDS011;56848;49.896;11.424;2022-08-21T05:11:43;68.87;;;14.03;;
12888;SDS011;56848;49.896;11.424;2022-08-21T05:14:09;179.97;;;16.20;;
12888;SDS011;56848;49.896;11.424;2022-08-21T05:16:36;114.03;;;13.67;;
12888;SDS011;56848;49.896;11.424;2022-08-21T05:19:02;108.40;;;14.60;;
12888;SDS011;56848;49.896;11.424;2022-08-21T05:21:28;170.03;;;14.77;;
12888;SDS011;56848;49.896;11.424;2022-08-21T05:23:54;81.40;;;13.70;;
12888;SDS011;56848;49.896;11.424;2022-08-21T05:26:20;198.70;;;16.17;;
12888;SDS011;56848;49.896;11.424;2022-08-21T05:28:46;163.23;;;15.40;;
12888;SDS011;56848;49.896;11.424;2022-08-21T05:31:12;128.60;;;16.40;;
12888;SDS011;56848;49.896;11.424;2022-08-21T05:33:38;191.67;;;15.70;;
12888;SDS011;56848;49.896;11.424;2022-08-21T05:36:04;125.10;;;16.40;;
12888;SDS011;56848;49.896;11.424;2022-08-21T05:38:30;174.30;;;17.07;;
12888;SDS011;56848;49.896;11.424;2022-08-21T05:40:56;112.23;;;18.20;;
12888;SDS011;56848;49.896;11.424;2022-08-21T05:43:22;91.40;;;16.93;;
12888;SDS011;56848;49.896;11.424;2022-08-21T05:45:48;65.60;;;17.13;;
12888;SDS011;56848;49.896;11.424;2022-08-21T05:48:15;44.63;;;16.57;;
12888;SDS011;56848;49.896;11.424;2022-08-21T05:50:42;147.23;;;17.47;;
12888;SDS011;56848;49.896;11.424;2022-08-21T05:53:08;206.30;;;19.20;;
12888;SDS011;56848;49.896;11.424;2022-08-21T05:55:35;98.73;;;17.30;;
12888;SDS011;56848;49.896;11.424;2022-08-21T05:58:02;171.47;;;19.13;;
12888;SDS011;56848;49.896;11.424;2022-08-21T06:00:28;37.60;;;16.00;;
12888;SDS011;56848;49.896;11.424;2022-08-21T06:02:55;69.07;;;17.60;;
12888;SDS011;56848;49.896;11.424;2022-08-21T06:05:21;80.80;;;19.30;;
12888;SDS011;56848;49.896;11.424;2022-08-21T06:07:47;255.17;;;22.80;;
12888;SDS011;56848;49.896;11.424;2022-08-21T06:10:13;204.47;;;22.10;;
12888;SDS011;56848;49.896;11.424;2022-08-21T06:12:39;228.77;;;23.97;;
12888;SDS011;56848;49.896;11.424;2022-08-21T06:15:06;286.80;;;25.43;;
12888;SDS011;56848;49.896;11.424;2022-08-21T06:17:32;132.47;;;22.67;;
12888;SDS011;56848;49.896;11.424;2022-08-21T06:19:58;421.27;;;28.60;;
12888;SDS011;56848;49.896;11.424;2022-08-21T06:22:24;357.00;;;29.03;;
12888;SDS011;56848;49.896;11.424;2022-08-21T06:24:50;170.77;;;24.60;;
12888;SDS011;56848;49.896;11.424;2022-08-21T06:27:16;266.07;;;25.53;;
12888;SDS011;56848;49.896;11.424;2022-08-21T06:29:42;122.13;;;24.27;;
12888;SDS011;56848;49.896;11.424;2022-08-21T06:32:10;233.00;;;25.67;;
12888;SDS011;56848;49.896;11.424;2022-08-21T06:34:37;378.63;;;28.10;;
12888;SDS011;56848;49.896;11.424;2022-08-21T06:37:03;117.20;;;23.33;;
12888;SDS011;56848;49.896;11.424;2022-08-21T06:39:29;349.97;;;25.27;;
12888;SDS011;56848;49.896;11.424;2022-08-21T06:41:55;259.90;;;26.03;;
12888;SDS011;56848;49.896;11.424;2022-08-21T06:44:21;248.90;;;26.23;;
12888;SDS011;56848;49.896;11.424;2022-08-21T06:46:47;184.93;;;23.93;;
12888;SDS011;56848;49.896;11.424;2022-08-21T06:49:13;71.20;;;21.40;;
12888;SDS011;56848;49.896;11.424;2022-08-21T06:51:40;58.73;;;22.80;;
12888;SDS011;56848;49.896;11.424;2022-08-21T06:54:06;120.43;;;22.30;;
12888;SDS011;56848;49.896;11.424;2022-08-21T06:56:32;49.97;;;22.07;;
12888;SDS011;56848;49.896;11.424;2022-08-21T06:59:00;69.37;;;22.93;;
12888;SDS011;56848;49.896;11.424;2022-08-21T07:01:26;90.17;;;23.17;;
12888;SDS011;56848;49.896;11.424;2022-08-21T07:03:52;134.60;;;23.40;;
12888;SDS011;56848;49.896;11.424;2022-08-21T07:06:18;100.60;;;22.53;;
12888;SDS011;56848;49.896;11.424;2022-08-21T07:08:44;40.33;;;21.60;;
12888;SDS011;56848;49.896;11.424;2022-08-21T07:11:20;38.03;;;20.80;;
12888;SDS011;56848;49.896;11.424;2022-08-21T07:13:47;34.60;;;21.97;;
12888;SDS011;56848;49.896;11.424;2022-08-21T07:16:13;40.10;;;20.43;;
12888;SDS011;56848;49.896;11.424;2022-08-21T07:18:39;37.30;;;21.20;;
12888;SDS011;56848;49.896;11.424;2022-08-21T07:21:05;33.40;;;19.90;;
12888;SDS011;56848;49.896;11.424;2022-08-21T07:23:33;28.67;;;19.47;;
12888;SDS011;56848;49.896;11.424;2022-08-21T07:25:59;27.90;;;18.93;;
12888;SDS011;56848;49.896;11.424;2022-08-21T07:28:26;44.23;;;20.73;;
12888;SDS011;56848;49.896;11.424;2022-08-21T07:30:53;31.00;;;18.00;;
12888;SDS011;56848;49.896;11.424;2022-08-21T07:33:20;33.20;;;19.87;;
12888;SDS011;56848;49.896;11.424;2022-08-21T07:35:46;28.43;;;19.53;;
12888;SDS011;56848;49.896;11.424;2022-08-21T07:38:12;32.13;;;21.33;;
12888;SDS011;56848;49.896;11.424;2022-08-21T07:40:38;34.10;;;22.60;;
12888;SDS011;56848;49.896;11.424;2022-08-21T07:43:04;37.40;;;23.43;;
12888;SDS011;56848;49.896;11.424;2022-08-21T07:45:30;35.47;;;23.30;;
12888;SDS011;56848;49.896;11.424;2022-08-21T07:47:57;37.37;;;23.70;;
12888;SDS011;56848;49.896;11.424;2022-08-21T07:50:23;39.80;;;25.27;;
12888;SDS011;56848;49.896;11.424;2022-08-21T07:52:49;39.50;;;24.20;;
12888;SDS011;56848;49.896;11.424;2022-08-21T07:55:16;40.50;;;23.67;;
12888;SDS011;56848;49.896;11.424;2022-08-21T07:57:44;37.37;;;24.13;;
12888;SDS011;56848;49.896;11.424;2022-08-21T08:00:12;33.33;;;23.20;;
12888;SDS011;56848;49.896;11.424;2022-08-21T08:02:38;38.50;;;23.53;;
12888;SDS011;56848;49.896;11.424;2022-08-21T08:05:06;34.97;;;23.97;;
12888;SDS011;56848;49.896;11.424;2022-08-21T08:07:33;43.97;;;25.87;;
12888;SDS011;56848;49.896;11.424;2022-08-21T08:09:59;32.47;;;23.73;;
12888;SDS011;56848;49.896;11.424;2022-08-21T08:12:25;34.00;;;22.10;;
12888;SDS011;56848;49.896;11.424;2022-08-21T08:14:55;39.97;;;25.00;;
12888;SDS011;56848;49.896;11.424;2022-08-21T08:17:21;36.87;;;25.07;;
12888;SDS011;56848;49.896;11.424;2022-08-21T08:19:48;32.43;;;22.63;;
12888;SDS011;56848;49.896;11.424;2022-08-21T08:22:18;35.93;;;24.63;;
12888;SDS011;56848;49.896;11.424;2022-08-21T08:24:45;33.90;;;23.67;;
12888;SDS011;56848;49.896;11.424;2022-08-21T08:27:11;35.53;;;24.23;;
12888;SDS011;56848;49.896;11.424;2022-08-21T08:29:37;35.40;;;24.30;;
12888;SDS011;56848;49.896;11.424;2022-08-21T08:32:04;31.23;;;22.07;;
12888;SDS011;56848;49.896;11.424;2022-08-21T08:34:32;32.90;;;22.90;;
12888;SDS011;56848;49.896;11.424;2022-08-21T08:36:58;33.70;;;21.63;;
12888;SDS011;56848;49.896;11.424;2022-08-21T08:39:24;33.60;;;23.43;;
12888;SDS011;56848;49.896;11.424;2022-08-21T08:41:54;30.13;;;23.70;;
12888;SDS011;56848;49.896;11.424;2022-08-21T08:44:21;31.53;;;22.93;;
12888;SDS011;56848;49.896;11.424;2022-08-21T08:46:47;32.10;;;21.30;;
12888;SDS011;56848;49.896;11.424;2022-08-21T08:49:36;28.73;;;21.50;;
12888;SDS011;56848;49.896;11.424;2022-08-21T08:54:43;25.90;;;19.00;;
12888;SDS011;56848;49.896;11.424;2022-08-21T08:57:13;26.73;;;19.50;;
12888;SDS011;56848;49.896;11.424;2022-08-21T08:59:41;26.80;;;20.60;;
12888;SDS011;56848;49.896;11.424;2022-08-21T09:02:09;26.53;;;18.53;;
12888;SDS011;56848;49.896;11.424;2022-08-21T09:04:36;25.20;;;19.60;;
12888;SDS011;56848;49.896;11.424;2022-08-21T09:07:07;24.20;;;19.27;;
12888;SDS011;56848;49.896;11.424;2022-08-21T09:09:59;27.13;;;19.80;;
12888;SDS011;56848;49.896;11.424;2022-08-21T09:12:33;26.77;;;19.90;;
12888;SDS011;56848;49.896;11.424;2022-08-21T09:17:40;30.10;;;19.60;;
12888;SDS011;56848;49.896;11.424;2022-08-21T09:27:35;29.43;;;18.17;;
12888;SDS011;56848;49.896;11.424;2022-08-21T09:30:02;25.00;;;19.20;;
12888;SDS011;56848;49.896;11.424;2022-08-21T09:32:30;21.30;;;16.20;;
12888;SDS011;56848;49.896;11.424;2022-08-21T09:37:33;20.50;;;15.10;;
12888;SDS011;56848;49.896;11.424;2022-08-21T09:40:00;26.10;;;16.00;;
12888;SDS011;56848;49.896;11.424;2022-08-21T09:42:28;22.13;;;16.67;;
12888;SDS011;56848;49.896;11.424;2022-08-21T09:45:06;22.40;;;16.77;;
12888;SDS011;56848;49.896;11.424;2022-08-21T09:47:33;20.60;;;15.33;;
12888;SDS011;56848;49.896;11.424;2022-08-21T09:50:07;20.63;;;16.40;;
12888;SDS011;56848;49.896;11.424;2022-08-21T09:52:33;19.50;;;14.77;;
12888;SDS011;56848;49.896;11.424;2022-08-21T09:54:59;21.60;;;15.70;;
12888;SDS011;56848;49.896;11.424;2022-08-21T09:57:45;17.53;;;14.90;;
12888;SDS011;56848;49.896;11.424;2022-08-21T10:02:42;18.00;;;14.60;;
12888;SDS011;56848;49.896;11.424;2022-08-21T10:05:22;19.97;;;14.40;;
12888;SDS011;56848;49.896;11.424;2022-08-21T10:07:48;18.40;;;14.50;;
12888;SDS011;56848;49.896;11.424;2022-08-21T10:10:17;15.73;;;13.20;;
12888;SDS011;56848;49.896;11.424;2022-08-21T10:20:09;14.33;;;12.10;;
12888;SDS011;56848;49.896;11.424;2022-08-21T10:25:32;19.30;;;11.63;;
12888;SDS011;56848;49.896;11.424;2022-08-21T10:30:44;14.47;;;11.63;;
12888;SDS011;56848;49.896;11.424;2022-08-21T10:33:27;17.90;;;13.10;;
12888;SDS011;56848;49.896;11.424;2022-08-21T10:36:02;20.37;;;11.77;;
12888;SDS011;56848;49.896;11.424;2022-08-21T10:41:32;16.67;;;11.20;;
12888;SDS011;56848;49.896;11.424;2022-08-21T10:44:07;19.60;;;12.37;;
12888;SDS011;56848;49.896;11.424;2022-08-21T10:46:47;14.77;;;10.63;;
12888;SDS011;56848;49.896;11.424;2022-08-21T10:57:33;11.83;;;9.07;;
12888;SDS011;56848;49.896;11.424;2022-08-21T11:00:06;12.80;;;8.83;;
12888;SDS011;56848;49.896;11.424;2022-08-21T11:02:40;12.47;;;8.90;;
12888;SDS011;56848;49.896;11.424;2022-08-21T11:05:13;11.23;;;8.37;;
12888;SDS011;56848;49.896;11.424;2022-08-21T11:07:44;9.30;;;8.23;;
12888;SDS011;56848;49.896;11.424;2022-08-21T11:12:41;10.43;;;8.20;;
12888;SDS011;56848;49.896;11.424;2022-08-21T11:17:52;10.70;;;7.80;;
12888;SDS011;56848;49.896;11.424;2022-08-21T11:20:23;9.40;;;8.50;;
12888;SDS011;56848;49.896;11.424;2022-08-21T11:23:00;9.10;;;7.50;;
12888;SDS011;56848;49.896;11.424;2022-08-21T11:25:39;9.50;;;7.30;;
12888;SDS011;56848;49.896;11.424;2022-08-21T11:28:08;9.40;;;7.17;;
12888;SDS011;56848;49.896;11.424;2022-08-21T11:31:28;7.73;;;6.93;;
12888;SDS011;56848;49.896;11.424;2022-08-21T11:36:11;10.90;;;8.60;;
12888;SDS011;56848;49.896;11.424;2022-08-21T11:38:42;13.63;;;7.67;;
12888;SDS011;56848;49.896;11.424;2022-08-21T11:41:13;9.57;;;8.43;;
12888;SDS011;56848;49.896;11.424;2022-08-21T11:43:47;12.10;;;8.27;;
12888;SDS011;56848;49.896;11.424;2022-08-21T11:46:33;12.83;;;7.53;;
12888;SDS011;56848;49.896;11.424;2022-08-21T11:51:37;14.43;;;7.83;;
12888;SDS011;56848;49.896;11.424;2022-08-21T11:54:20;17.47;;;8.47;;
12888;SDS011;56848;49.896;11.424;2022-08-21T11:57:02;9.93;;;7.30;;
12888;SDS011;56848;49.896;11.424;2022-08-21T11:59:35;9.60;;;7.07;;
12888;SDS011;56848;49.896;11.424;2022-08-21T12:02:02;8.80;;;6.53;;
12888;SDS011;56848;49.896;11.424;2022-08-21T12:04:34;9.33;;;7.20;;
12888;SDS011;56848;49.896;11.424;2022-08-21T12:07:11;8.40;;;7.60;;
12888;SDS011;56848;49.896;11.424;2022-08-21T12:09:38;7.53;;;6.73;;
12888;SDS011;56848;49.896;11.424;2022-08-21T12:12:38;6.97;;;6.27;;
12888;SDS011;56848;49.896;11.424;2022-08-21T12:18:02;7.97;;;7.10;;
12888;SDS011;56848;49.896;11.424;2022-08-21T12:23:12;9.87;;;6.90;;
12888;SDS011;56848;49.896;11.424;2022-08-21T12:25:45;5.83;;;5.30;;
12888;SDS011;56848;49.896;11.424;2022-08-21T12:28:13;5.83;;;5.33;;
12888;SDS011;56848;49.896;11.424;2022-08-21T12:30:42;6.37;;;5.53;;
12888;SDS011;56848;49.896;11.424;2022-08-21T12:33:26;5.10;;;4.60;;
12888;SDS011;56848;49.896;11.424;2022-08-21T12:35:53;5.73;;;5.23;;
12888;SDS011;56848;49.896;11.424;2022-08-21T12:38:28;6.67;;;5.57;;
12888;SDS011;56848;49.896;11.424;2022-08-21T12:41:03;5.10;;;4.70;;
12888;SDS011;56848;49.896;11.424;2022-08-21T12:43:56;4.90;;;4.50;;
12888;SDS011;56848;49.896;11.424;2022-08-21T12:46:37;4.93;;;4.53;;
12888;SDS011;56848;49.896;11.424;2022-08-21T12:49:14;4.80;;;4.40;;
12888;SDS011;56848;49.896;11.424;2022-08-21T12:51:51;7.43;;;4.63;;
12888;SDS011;56848;49.896;11.424;2022-08-21T12:54:27;4.40;;;4.00;;
12888;SDS011;56848;49.896;11.424;2022-08-21T12:56:57;4.27;;;3.97;;
12888;SDS011;56848;49.896;11.424;2022-08-21T12:59:24;4.10;;;3.80;;
12888;SDS011;56848;49.896;11.424;2022-08-21T13:01:50;4.80;;;4.40;;
12888;SDS011;56848;49.896;11.424;2022-08-21T13:04:32;5.93;;;4.27;;
12888;SDS011;56848;49.896;11.424;2022-08-21T13:06:59;8.80;;;4.17;;
12888;SDS011;56848;49.896;11.424;2022-08-21T13:09:26;4.40;;;4.10;;
12888;SDS011;56848;49.896;11.424;2022-08-21T13:11:52;5.37;;;4.57;;
12888;SDS011;56848;49.896;11.424;2022-08-21T13:14:23;4.83;;;4.43;;
12888;SDS011;56848;49.896;11.424;2022-08-21T13:16:55;6.53;;;3.90;;
12888;SDS011;56848;49.896;11.424;2022-08-21T13:19:22;6.07;;;4.50;;
12888;SDS011;56848;49.896;11.424;2022-08-21T13:21:49;4.53;;;4.23;;
12888;SDS011;56848;49.896;11.424;2022-08-21T13:24:23;6.83;;;4.20;;
12888;SDS011;56848;49.896;11.424;2022-08-21T13:26:50;4.10;;;3.70;;
12888;SDS011;56848;49.896;11.424;2022-08-21T13:29:19;4.57;;;4.17;;
12888;SDS011;56848;49.896;11.424;2022-08-21T13:31:56;4.60;;;4.13;;
12888;SDS011;56848;49.896;11.424;2022-08-21T13:34:23;3.80;;;3.60;;
12888;SDS011;56848;49.896;11.424;2022-08-21T13:36:51;4.93;;;3.70;;
12888;SDS011;56848;49.896;11.424;2022-08-21T13:39:18;4.97;;;4.23;;
12888;SDS011;56848;49.896;11.424;2022-08-21T13:41:45;4.60;;;4.17;;
12888;SDS011;56848;49.896;11.424;2022-08-21T13:46:40;5.40;;;3.57;;
12888;SDS011;56848;49.896;11.424;2022-08-21T13:49:06;4.13;;;3.83;;
12888;SDS011;56848;49.896;11.424;2022-08-21T13:51:34;4.23;;;3.93;;
12888;SDS011;56848;49.896;11.424;2022-08-21T13:54:01;4.00;;;3.70;;
12888;SDS011;56848;49.896;11.424;2022-08-21T13:56:41;4.37;;;3.80;;
12888;SDS011;56848;49.896;11.424;2022-08-21T13:59:08;3.77;;;3.47;;
12888;SDS011;56848;49.896;11.424;2022-08-21T14:01:38;6.03;;;4.20;;
12888;SDS011;56848;49.896;11.424;2022-08-21T14:06:50;4.07;;;3.77;;
12888;SDS011;56848;49.896;11.424;2022-08-21T14:09:39;3.83;;;3.47;;
12888;SDS011;56848;49.896;11.424;2022-08-21T14:12:17;5.97;;;3.80;;
12888;SDS011;56848;49.896;11.424;2022-08-21T14:14:53;4.27;;;3.80;;
12888;SDS011;56848;49.896;11.424;2022-08-21T14:17:35;3.60;;;3.30;;
12888;SDS011;56848;49.896;11.424;2022-08-21T14:20:04;3.63;;;3.33;;
12888;SDS011;56848;49.896;11.424;2022-08-21T14:22:35;4.60;;;4.20;;
12888;SDS011;56848;49.896;11.424;2022-08-21T14:27:48;3.90;;;3.60;;
12888;SDS011;56848;49.896;11.424;2022-08-21T14:30:19;3.70;;;3.40;;
12888;SDS011;56848;49.896;11.424;2022-08-21T14:32:51;4.10;;;3.27;;
12888;SDS011;56848;49.896;11.424;2022-08-21T14:35:17;6.47;;;3.60;;
12888;SDS011;56848;49.896;11.424;2022-08-21T14:37:44;8.10;;;3.77;;
12888;SDS011;56848;49.896;11.424;2022-08-21T14:40:10;3.40;;;3.00;;
12888;SDS011;56848;49.896;11.424;2022-08-21T14:42:37;4.57;;;4.17;;
12888;SDS011;56848;49.896;11.424;2022-08-21T14:45:10;4.70;;;3.10;;
12888;SDS011;56848;49.896;11.424;2022-08-21T14:47:38;3.00;;;2.80;;
12888;SDS011;56848;49.896;11.424;2022-08-21T14:50:03;3.90;;;3.60;;
12888;SDS011;56848;49.896;11.424;2022-08-21T14:52:29;9.50;;;3.93;;
12888;SDS011;56848;49.896;11.424;2022-08-21T14:54:55;4.27;;;3.70;;
12888;SDS011;56848;49.896;11.424;2022-08-21T14:57:29;4.60;;;3.90;;
12888;SDS011;56848;49.896;11.424;2022-08-21T14:59:57;3.90;;;3.50;;
12888;SDS011;56848;49.896;11.424;2022-08-21T15:02:23;5.87;;;3.80;;
12888;SDS011;56848;49.896;11.424;2022-08-21T15:04:49;4.27;;;3.70;;
12888;SDS011;56848;49.896;11.424;2022-08-21T15:07:15;3.43;;;3.23;;
12888;SDS011;56848;49.896;11.424;2022-08-21T15:09:40;3.40;;;3.20;;
12888;SDS011;56848;49.896;11.424;2022-08-21T15:12:06;14.83;;;4.57;;
12888;SDS011;56848;49.896;11.424;2022-08-21T15:14:33;4.47;;;4.07;;
12888;SDS011;56848;49.896;11.424;2022-08-21T15:17:03;4.70;;;4.30;;
12888;SDS011;56848;49.896;11.424;2022-08-21T15:19:30;6.80;;;3.60;;
12888;SDS011;56848;49.896;11.424;2022-08-21T15:21:56;5.60;;;3.73;;
12888;SDS011;56848;49.896;11.424;2022-08-21T15:24:22;4.10;;;3.70;;
12888;SDS011;56848;49.896;11.424;2022-08-21T15:26:47;3.73;;;3.43;;
12888;SDS011;56848;49.896;11.424;2022-08-21T15:29:13;3.97;;;3.67;;
12888;SDS011;56848;49.896;11.424;2022-08-21T15:32:40;5.70;;;4.00;;
12888;SDS011;56848;49.896;11.424;2022-08-21T15:34:40;4.20;;;3.80;;
12888;SDS011;56848;49.896;11.424;2022-08-21T15:37:05;3.90;;;3.50;;
12888;SDS011;56848;49.896;11.424;2022-08-21T15:39:33;6.73;;;3.10;;
12888;SDS011;56848;49.896;11.424;2022-08-21T15:41:59;4.50;;;3.87;;
12888;SDS011;56848;49.896;11.424;2022-08-21T15:44:25;3.03;;;2.83;;
12888;SDS011;56848;49.896;11.424;2022-08-21T15:46:53;3.80;;;3.50;;
12888;SDS011;56848;49.896;11.424;2022-08-21T15:49:19;4.47;;;3.67;;
12888;SDS011;56848;49.896;11.424;2022-08-21T15:51:44;3.57;;;3.27;;
12888;SDS011;56848;49.896;11.424;2022-08-21T15:54:10;3.73;;;3.27;;
12888;SDS011;56848;49.896;11.424;2022-08-21T15:56:37;2.93;;;2.73;;
12888;SDS011;56848;49.896;11.424;2022-08-21T15:59:06;3.67;;;3.37;;
12888;SDS011;56848;49.896;11.424;2022-08-21T16:01:34;3.30;;;3.07;;
12888;SDS011;56848;49.896;11.424;2022-08-21T16:04:01;3.37;;;3.07;;
12888;SDS011;56848;49.896;11.424;2022-08-21T16:06:28;4.10;;;3.70;;
12888;SDS011;56848;49.896;11.424;2022-08-21T16:08:54;4.63;;;3.03;;
12888;SDS011;56848;49.896;11.424;2022-08-21T16:11:19;3.43;;;3.13;;
12888;SDS011;56848;49.896;11.424;2022-08-21T16:13:45;3.27;;;2.93;;
12888;SDS011;56848;49.896;11.424;2022-08-21T16:16:14;3.60;;;3.30;;
12888;SDS011;56848;49.896;11.424;2022-08-21T16:18:42;3.37;;;3.10;;
12888;SDS011;56848;49.896;11.424;2022-08-21T16:21:08;3.10;;;2.90;;
12888;SDS011;56848;49.896;11.424;2022-08-21T16:23:34;3.53;;;3.03;;
12888;SDS011;56848;49.896;11.424;2022-08-21T16:26:01;3.30;;;3.10;;
12888;SDS011;56848;49.896;11.424;2022-08-21T16:28:28;3.43;;;3.10;;
12888;SDS011;56848;49.896;11.424;2022-08-21T16:30:55;4.30;;;3.40;;
12888;SDS011;56848;49.896;11.424;2022-08-21T16:33:34;3.33;;;3.13;;
12888;SDS011;56848;49.896;11.424;2022-08-21T16:36:04;3.40;;;3.10;;
12888;SDS011;56848;49.896;11.424;2022-08-21T16:38:31;3.97;;;3.63;;
12888;SDS011;56848;49.896;11.424;2022-08-21T16:40:58;3.00;;;2.80;;
12888;SDS011;56848;49.896;11.424;2022-08-21T16:43:25;3.20;;;3.00;;
12888;SDS011;56848;49.896;11.424;2022-08-21T16:45:52;3.77;;;3.47;;
12888;SDS011;56848;49.896;11.424;2022-08-21T16:48:19;5.93;;;3.50;;
12888;SDS011;56848;49.896;11.424;2022-08-21T16:50:45;4.30;;;3.23;;
12888;SDS011;56848;49.896;11.424;2022-08-21T16:53:11;3.50;;;3.30;;
12888;SDS011;56848;49.896;11.424;2022-08-21T16:55:37;6.33;;;3.40;;
12888;SDS011;56848;49.896;11.424;2022-08-21T16:58:10;3.87;;;3.53;;
12888;SDS011;56848;49.896;11.424;2022-08-21T17:00:43;4.50;;;3.50;;
12888;SDS011;56848;49.896;11.424;2022-08-21T17:03:11;4.37;;;3.70;;
12888;SDS011;56848;49.896;11.424;2022-08-21T17:05:40;2.93;;;2.73;;
12888;SDS011;56848;49.896;11.424;2022-08-21T17:08:05;3.20;;;3.00;;
12888;SDS011;56848;49.896;11.424;2022-08-21T17:10:33;6.00;;;3.47;;
12888;SDS011;56848;49.896;11.424;2022-08-21T17:12:58;3.10;;;2.90;;
12888;SDS011;56848;49.896;11.424;2022-08-21T17:15:26;4.10;;;3.70;;
12888;SDS011;56848;49.896;11.424;2022-08-21T17:17:55;3.53;;;3.20;;
12888;SDS011;56848;49.896;11.424;2022-08-21T17:20:21;3.80;;;3.50;;
12888;SDS011;56848;49.896;11.424;2022-08-21T17:22:46;4.80;;;3.93;;
12888;SDS011;56848;49.896;11.424;2022-08-21T17:25:12;3.90;;;3.33;;
12888;SDS011;56848;49.896;11.424;2022-08-21T17:27:39;3.90;;;3.40;;
12888;SDS011;56848;49.896;11.424;2022-08-21T17:30:08;5.93;;;3.20;;
12888;SDS011;56848;49.896;11.424;2022-08-21T17:32:35;4.53;;;3.40;;
12888;SDS011;56848;49.896;11.424;2022-08-21T17:35:02;7.60;;;3.17;;
12888;SDS011;56848;49.896;11.424;2022-08-21T17:37:28;4.47;;;3.40;;
12888;SDS011;56848;49.896;11.424;2022-08-21T17:39:54;3.60;;;3.30;;
12888;SDS011;56848;49.896;11.424;2022-08-21T17:42:20;3.67;;;2.70;;
12888;SDS011;56848;49.896;11.424;2022-08-21T17:44:47;3.60;;;3.30;;
12888;SDS011;56848;49.896;11.424;2022-08-21T17:47:13;3.27;;;3.07;;
12888;SDS011;56848;49.896;11.424;2022-08-21T17:49:39;3.10;;;2.90;;
12888;SDS011;56848;49.896;11.424;2022-08-21T17:52:05;4.37;;;3.37;;
12888;SDS011;56848;49.896;11.424;2022-08-21T17:54:31;3.20;;;2.93;;
12888;SDS011;56848;49.896;11.424;2022-08-21T17:56:58;3.10;;;2.87;;
12888;SDS011;56848;49.896;11.424;2022-08-21T17:59:24;4.23;;;3.40;;
12888;SDS011;56848;49.896;11.424;2022-08-21T18:01:50;7.47;;;3.07;;
12888;SDS011;56848;49.896;11.424;2022-08-21T18:04:16;5.70;;;3.33;;
12888;SDS011;56848;49.896;11.424;2022-08-21T18:06:42;5.43;;;2.70;;
12888;SDS011;56848;49.896;11.424;2022-08-21T18:09:09;3.43;;;3.13;;
12888;SDS011;56848;49.896;11.424;2022-08-21T18:11:36;3.80;;;2.93;;
12888;SDS011;56848;49.896;11.424;2022-08-21T18:14:02;4.97;;;3.00;;
12888;SDS011;56848;49.896;11.424;2022-08-21T18:16:30;3.67;;;2.97;;
12888;SDS011;56848;49.896;11.424;2022-08-21T18:18:57;3.90;;;3.07;;
12888;SDS011;56848;49.896;11.424;2022-08-21T18:21:24;4.33;;;3.40;;
12888;SDS011;56848;49.896;11.424;2022-08-21T18:23:51;3.73;;;3.43;;
12888;SDS011;56848;49.896;11.424;2022-08-21T18:26:26;5.77;;;3.10;;
12888;SDS011;56848;49.896;11.424;2022-08-21T18:28:55;3.60;;;3.30;;
12888;SDS011;56848;49.896;11.424;2022-08-21T18:31:25;5.10;;;3.70;;
12888;SDS011;56848;49.896;11.424;2022-08-21T18:33:52;4.20;;;3.80;;
12888;SDS011;56848;49.896;11.424;2022-08-21T18:36:19;5.43;;;3.37;;
12888;SDS011;56848;49.896;11.424;2022-08-21T18:38:44;3.70;;;3.40;;
12888;SDS011;56848;49.896;11.424;2022-08-21T18:41:10;7.47;;;3.10;;
12888;SDS011;56848;49.896;11.424;2022-08-21T18:43:36;3.57;;;3.37;;
12888;SDS011;56848;49.896;11.424;2022-08-21T18:46:02;6.00;;;3.60;;
12888;SDS011;56848;49.896;11.424;2022-08-21T18:48:29;7.10;;;3.33;;
12888;SDS011;56848;49.896;11.424;2022-08-21T18:50:56;3.80;;;3.50;;
12888;SDS011;56848;49.896;11.424;2022-08-21T18:53:22;4.07;;;3.33;;
12888;SDS011;56848;49.896;11.424;2022-08-21T18:55:47;5.17;;;4.33;;
12888;SDS011;56848;49.896;11.424;2022-08-21T18:58:14;5.20;;;4.43;;
12888;SDS011;56848;49.896;11.424;2022-08-21T19:00:42;5.20;;;4.50;;
12888;SDS011;56848;49.896;11.424;2022-08-21T19:03:15;5.20;;;4.27;;
12888;SDS011;56848;49.896;11.424;2022-08-21T19:05:43;5.20;;;4.17;;
12888;SDS011;56848;49.896;11.424;2022-08-21T19:08:10;8.73;;;4.30;;
12888;SDS011;56848;49.896;11.424;2022-08-21T19:10:38;6.93;;;4.27;;
12888;SDS011;56848;49.896;11.424;2022-08-21T19:13:05;7.53;;;5.20;;
12888;SDS011;56848;49.896;11.424;2022-08-21T19:15:32;7.77;;;4.57;;
12888;SDS011;56848;49.896;11.424;2022-08-21T19:18:00;6.13;;;4.20;;
12888;SDS011;56848;49.896;11.424;2022-08-21T19:20:30;4.67;;;4.27;;
12888;SDS011;56848;49.896;11.424;2022-08-21T19:23:01;5.10;;;4.60;;
12888;SDS011;56848;49.896;11.424;2022-08-21T19:25:29;6.27;;;4.53;;
12888;SDS011;56848;49.896;11.424;2022-08-21T19:27:56;5.63;;;5.13;;
12888;SDS011;56848;49.896;11.424;2022-08-21T19:30:22;8.50;;;4.40;;
12888;SDS011;56848;49.896;11.424;2022-08-21T19:32:47;6.87;;;4.60;;
12888;SDS011;56848;49.896;11.424;2022-08-21T19:35:14;5.60;;;4.30;;
12888;SDS011;56848;49.896;11.424;2022-08-21T19:37:42;8.30;;;5.00;;